Time;durP1;ratioP1;P1;durP2;ratioP2;P2;SDS_P1;SDS_P2;PMS_P1;PMS_P2;Temp;Humidity;BMP_temperature;BMP_pressure;BME280_temperature;BME280_humidity;BME280_pressure;Samples;Min_cycle;Max_cycle;Signal;HPM_P1;HPM_P2
2023/01/04 00:01:24;;;;;;;11.57;9.30;;;;;;;19.47;54.02;102543.88;5035815;28;20045;-55
2023/01/04 00:03:52;;;;;;;14.70;9.98;;;;;;;19.47;54.20;102549.25;5035439;28;20056;-53
2023/01/04 00:06:20;;;;;;;12.18;9.73;;;;;;;19.47;53.77;102543.00;5035572;28;20053;-55
2023/01/04 00:08:47;;;;;;;14.70;9.60;;;;;;;19.47;53.80;102543.00;5035636;28;20045;-54
2023/01/04 00:11:18;;;;;;;12.70;9.25;;;;;;;19.47;54.09;102546.56;5035275;28;20045;-51
2023/01/04 00:13:46;;;;;;;13.80;9.20;;;;;;;19.46;53.85;102544.84;5035397;28;20053;-54
2023/01/04 00:16:17;;;;;;;13.32;9.88;;;;;;;19.46;53.80;102534.09;5035308;28;20072;-54
2023/01/04 00:18:45;;;;;;;11.55;9.30;;;;;;;19.46;53.71;102535.91;5035003;28;20049;-56
2023/01/04 00:21:15;;;;;;;11.07;8.50;;;;;;;19.45;53.89;102536.88;5034681;28;20121;-55
2023/01/04 00:23:45;;;;;;;14.95;8.98;;;;;;;19.45;53.88;102539.56;5035431;28;20053;-53
2023/01/04 00:26:15;;;;;;;13.63;10.13;;;;;;;19.45;53.83;102547.63;5035060;28;20052;-56
2023/01/04 00:28:43;;;;;;;13.25;9.10;;;;;;;19.45;53.78;102547.63;5035662;28;20056;-55
2023/01/04 00:31:20;;;;;;;12.55;9.75;;;;;;;19.45;53.73;102544.94;5035192;28;20050;-56
2023/01/04 00:33:49;;;;;;;12.75;9.15;;;;;;;19.45;53.76;102544.94;5019431;28;20050;-54
2023/01/04 00:36:16;;;;;;;12.90;8.98;;;;;;;19.45;53.72;102547.63;5014797;28;20384;-55
2023/01/04 00:38:44;;;;;;;10.77;8.85;;;;;;;19.44;53.73;102541.34;5015471;28;20050;-56
2023/01/04 00:41:12;;;;;;;13.57;9.07;;;;;;;19.44;53.65;102541.34;5014871;28;20057;-55
2023/01/04 00:44:02;;;;;;;11.65;8.70;;;;;;;19.44;53.63;102535.13;5015059;28;20050;-54
2023/01/04 00:46:30;;;;;;;12.20;8.95;;;;;;;19.44;53.71;102537.81;5015285;28;20050;-55
2023/01/04 00:48:59;;;;;;;12.90;9.25;;;;;;;19.44;53.56;102543.19;5014019;28;20046;-55
2023/01/04 00:51:28;;;;;;;13.57;8.57;;;;;;;19.43;53.45;102539.63;5015356;28;20049;-55
2023/01/04 00:53:57;;;;;;;15.40;9.02;;;;;;;19.44;53.67;102540.50;5034316;28;20061;-56
2023/01/04 00:56:24;;;;;;;11.25;9.20;;;;;;;19.45;53.54;102547.63;5034659;28;20057;-55
2023/01/04 00:58:56;;;;;;;12.45;8.52;;;;;;;19.44;53.84;102535.13;5034258;28;20049;-55
2023/01/04 01:01:24;;;;;;;13.68;8.80;;;;;;;19.44;53.62;102535.13;5034389;28;20045;-55
2023/01/04 01:03:56;;;;;;;12.85;9.13;;;;;;;19.44;53.71;102537.81;5034733;28;20048;-55
2023/01/04 01:06:24;;;;;;;11.10;9.07;;;;;;;19.44;53.82;102545.88;5034236;28;20637;-53
2023/01/04 01:08:52;;;;;;;11.57;9.18;;;;;;;19.44;53.72;102545.88;5034297;28;20045;-53
2023/01/04 01:11:20;;;;;;;11.48;9.15;;;;;;;19.42;53.62;102540.59;5034095;28;20049;-55
2023/01/04 01:13:48;;;;;;;13.90;9.02;;;;;;;19.43;53.43;102544.16;5034257;28;20046;-55
2023/01/04 01:16:18;;;;;;;12.88;9.38;;;;;;;19.44;53.66;102553.94;5033943;28;20056;-55
2023/01/04 01:19:05;;;;;;;14.20;9.35;;;;;;;19.42;53.75;102551.34;5033726;28;20041;-55
2023/01/04 01:21:33;;;;;;;12.32;9.45;;;;;;;19.44;53.76;102556.63;5033860;28;20116;-55
2023/01/04 01:24:01;;;;;;;10.43;8.50;;;;;;;19.43;53.87;102555.75;5033166;28;20045;-54
2023/01/04 01:26:28;;;;;;;12.38;9.60;;;;;;;19.44;53.83;102559.31;5033927;28;20068;-56
2023/01/04 01:28:55;;;;;;;12.18;9.13;;;;;;;19.44;54.16;102551.25;5033900;28;20065;-54
2023/01/04 01:31:25;;;;;;;12.75;9.55;;;;;;;19.43;54.05;102550.38;5033926;28;20054;-55
2023/01/04 01:33:55;;;;;;;13.38;9.70;;;;;;;19.44;54.19;102553.94;5026960;28;20049;-55
2023/01/04 01:36:24;;;;;;;13.07;9.57;;;;;;;19.44;54.35;102551.25;5012886;28;20080;-55
2023/01/04 01:38:52;;;;;;;10.75;7.78;;;;;;;19.44;54.31;102552.09;5013889;28;20057;-55
2023/01/04 01:41:25;;;;;;;12.85;10.10;;;;;;;19.43;54.49;102550.38;5014129;28;20061;-54
2023/01/04 01:44:00;;;;;;;;;;;;;;;19.44;54.40;102557.47;5014369;28;20049;-56
2023/01/04 01:46:37;;;;;;;11.20;8.32;;;;;;;19.44;54.45;102565.53;5013953;28;19928;-56
2023/01/04 01:49:29;;;;;;;15.82;9.35;;;;;;;19.45;54.71;102569.13;5013670;28;20046;-55
2023/01/04 01:52:01;;;;;;;13.07;9.88;;;;;;;19.44;54.65;102564.69;5018833;28;20053;-55
2023/01/04 01:54:33;;;;;;;13.85;9.30;;;;;;;19.44;54.71;102560.16;5033281;28;20395;-56
2023/01/04 01:57:04;;;;;;;11.23;9.68;;;;;;;19.43;54.68;102558.44;5033405;28;20049;-55
2023/01/04 01:59:35;;;;;;;12.15;8.90;;;;;;;19.45;54.67;102561.06;5033347;28;20064;-56
2023/01/04 02:02:02;;;;;;;13.52;9.52;;;;;;;19.44;54.80;102562.84;5033611;28;20407;-54
2023/01/04 02:04:30;;;;;;;11.75;8.85;;;;;;;19.45;54.55;102551.16;5033354;28;20065;-55
2023/01/04 02:06:58;;;;;;;14.23;9.65;;;;;;;19.44;54.78;102552.09;5032005;28;20057;-54
2023/01/04 02:09:25;;;;;;;14.38;9.45;;;;;;;19.44;54.80;102554.78;5033583;28;20049;-55
2023/01/04 02:11:53;;;;;;;11.25;8.55;;;;;;;19.44;54.80;102552.09;5033207;28;20056;-54
2023/01/04 02:14:26;;;;;;;14.45;9.55;;;;;;;19.44;54.91;102554.78;5033167;28;20060;-55
2023/01/04 02:17:18;;;;;;;12.48;9.00;;;;;;;19.44;54.86;102553.94;5033437;28;20045;-54
2023/01/04 02:19:57;;;;;;;11.02;8.63;;;;;;;19.44;54.76;102545.88;5033121;28;20046;-55
2023/01/04 02:23:07;;;;;;;12.38;8.80;;;;;;;19.43;54.86;102538.78;5033028;28;20068;-56
2023/01/04 02:25:55;;;;;;;12.70;9.15;;;;;;;19.44;54.65;102543.19;5033588;28;20054;-55
2023/01/04 02:28:59;;;;;;;13.35;9.85;;;;;;;19.44;54.86;102545.88;5033362;28;20052;-55
2023/01/04 02:31:38;;;;;;;12.18;9.40;;;;;;;19.42;54.85;102537.06;5032948;28;20045;-54
2023/01/04 02:34:31;;;;;;;12.85;9.30;;;;;;;19.44;54.73;102541.34;5032558;28;20498;-52
2023/01/04 02:37:07;;;;;;;12.52;8.98;;;;;;;19.44;54.80;102545.88;5012166;28;20496;-55
2023/01/04 02:40:00;;;;;;;13.27;8.77;;;;;;;19.45;54.79;102542.25;5013633;28;20057;-54
2023/01/04 02:45:54;;;;;;;11.73;9.23;;;;;;;19.44;54.57;102546.72;5013064;28;20046;-55
2023/01/04 02:51:32;;;;;;;12.00;10.13;;;;;;;19.44;54.59;102544.06;5013574;28;20072;-55
2023/01/04 02:54:03;;;;;;;11.40;8.63;;;;;;;19.44;54.76;102540.50;5013069;28;20042;-54
2023/01/04 02:57:03;;;;;;;12.00;9.07;;;;;;;19.44;54.71;102544.06;5013055;28;20415;-55
2023/01/04 02:59:32;;;;;;;10.75;8.93;;;;;;;19.44;54.81;102540.50;5013099;28;20045;-56
2023/01/04 03:08:22;;;;;;;12.75;9.45;;;;;;;19.44;54.62;102537.81;5012786;28;20049;-56
2023/01/04 03:10:58;;;;;;;10.80;8.65;;;;;;;19.45;54.82;102544.94;5013559;28;20395;-55
2023/01/04 03:13:32;;;;;;;11.88;9.57;;;;;;;19.45;54.82;102547.63;5017090;28;20046;-52
2023/01/04 03:16:10;;;;;;;12.35;8.82;;;;;;;19.45;54.78;102539.56;5016909;28;20054;-55
2023/01/04 03:18:43;;;;;;;16.98;9.50;;;;;;;19.45;54.69;102540.44;5016660;28;20046;-54
2023/01/04 03:21:14;;;;;;;10.82;8.25;;;;;;;19.45;54.83;102534.19;5016604;28;20179;-55
2023/01/04 03:35:45;;;;;;;10.95;8.98;;;;;;;19.44;54.66;102541.34;5016060;28;20045;-55
2023/01/04 03:50:05;;;;;;;12.90;8.75;;;;;;;19.45;54.97;102534.19;5035526;28;20399;-55
2023/01/04 03:52:35;;;;;;;10.65;8.20;;;;;;;19.44;54.70;102536.00;5035398;28;20052;-55
2023/01/04 03:55:05;;;;;;;11.90;9.25;;;;;;;19.45;55.07;102529.69;5034053;28;20388;-55
2023/01/04 03:57:33;;;;;;;10.13;8.38;;;;;;;19.46;55.13;102527.88;5035683;28;20056;-56
2023/01/04 04:00:19;;;;;;;12.73;9.23;;;;;;;19.45;55.13;102526.13;5035497;28;20041;-55
2023/01/04 04:02:49;;;;;;;11.30;8.48;;;;;;;19.45;55.22;102526.13;5035601;28;20053;-55
2023/01/04 04:10:52;;;;;;;12.07;8.77;;;;;;;19.45;55.13;102521.63;5035460;28;20053;-55
2023/01/04 04:13:20;;;;;;;11.45;8.65;;;;;;;19.45;55.04;102523.44;5035572;28;20049;-55
2023/01/04 04:15:47;;;;;;;12.00;8.70;;;;;;;19.44;55.07;102527.94;5035416;28;20045;-55
2023/01/04 04:18:15;;;;;;;12.52;9.35;;;;;;;19.45;55.08;102524.31;5034179;28;20506;-55
2023/01/04 04:20:42;;;;;;;11.07;8.50;;;;;;;19.45;55.04;102527.00;5035634;28;20053;-55
2023/01/04 04:23:09;;;;;;;13.50;10.10;;;;;;;19.45;55.12;102527.00;5035080;28;20053;-55
2023/01/04 04:25:37;;;;;;;10.80;8.77;;;;;;;19.46;55.12;102533.22;5035169;28;20041;-56
2023/01/04 04:28:05;;;;;;;10.85;8.60;;;;;;;19.46;55.08;102525.16;5035524;28;20045;-55
2023/01/04 04:30:32;;;;;;;11.55;8.45;;;;;;;19.46;54.94;102534.09;5035121;28;20053;-54
2023/01/04 04:32:59;;;;;;;11.27;8.90;;;;;;;19.46;55.10;102534.09;5033841;28;20045;-54
2023/01/04 04:35:26;;;;;;;10.70;9.05;;;;;;;19.47;55.17;102534.94;5035267;28;20462;-55
2023/01/04 04:37:54;;;;;;;11.18;8.50;;;;;;;19.46;55.01;102528.72;5019007;28;20399;-54
2023/01/04 04:43:08;;;;;;;11.50;9.05;;;;;;;19.47;55.28;102524.22;5014522;28;20053;-56
2023/01/04 04:45:35;;;;;;;10.95;8.50;;;;;;;19.47;55.29;102533.13;5015322;28;20056;-55
2023/01/04 04:48:03;;;;;;;11.52;8.63;;;;;;;19.47;55.11;102525.06;5014545;28;20077;-55
2023/01/04 04:50:30;;;;;;;10.93;7.72;;;;;;;19.47;55.31;102525.06;5014939;28;20052;-56
2023/01/04 04:52:57;;;;;;;11.18;8.88;;;;;;;19.47;55.30;102526.91;5027918;28;20057;-56
2023/01/04 04:55:25;;;;;;;12.15;9.23;;;;;;;19.48;55.23;102531.31;5034852;28;20048;-55
2023/01/04 04:57:52;;;;;;;11.90;9.65;;;;;;;19.46;55.25;102528.72;5034562;28;20053;-55
2023/01/04 05:00:19;;;;;;;12.30;8.32;;;;;;;19.48;55.21;102534.84;5034518;28;20057;-54
2023/01/04 05:02:47;;;;;;;10.43;8.32;;;;;;;19.48;55.30;102528.63;5033618;28;20056;-55
2023/01/04 05:05:14;;;;;;;11.45;8.25;;;;;;;19.47;55.26;102521.53;5034354;28;20053;-56
2023/01/04 05:07:42;;;;;;;12.45;8.75;;;;;;;19.48;55.32;102524.09;5034329;28;20056;-55
2023/01/04 05:10:09;;;;;;;9.85;8.10;;;;;;;19.47;55.41;102519.69;5034609;28;20056;-56
2023/01/04 05:15:48;;;;;;;9.95;8.05;;;;;;;19.48;55.34;102518.72;5034193;28;20042;-54
2023/01/04 05:18:18;;;;;;;10.75;8.45;;;;;;;19.48;55.34;102517.88;5034171;28;20049;-55
2023/01/04 05:20:46;;;;;;;11.90;8.63;;;;;;;19.47;55.55;102522.38;5033837;28;20052;-55
2023/01/04 05:23:16;;;;;;;11.98;8.80;;;;;;;19.48;55.49;102531.31;5033794;28;20068;-55
2023/01/04 05:25:43;;;;;;;13.00;8.73;;;;;;;19.48;55.50;102532.16;5032701;28;20411;-54
2023/01/04 05:28:10;;;;;;;12.02;9.15;;;;;;;19.49;55.59;102533.91;5034326;28;20064;-54
2023/01/04 05:30:50;;;;;;;10.98;8.48;;;;;;;19.48;55.51;102532.16;5033965;28;20041;-55
2023/01/04 05:33:19;;;;;;;9.85;8.10;;;;;;;19.47;55.55;102538.50;5033608;28;20375;-55
2023/01/04 05:35:46;;;;;;;11.90;8.50;;;;;;;19.49;55.60;102543.81;5034087;28;20042;-55
2023/01/04 05:38:15;;;;;;;11.48;8.82;;;;;;;19.48;55.65;102539.34;5023804;28;20514;-54
2023/01/04 05:40:43;;;;;;;11.93;8.77;;;;;;;19.49;55.60;102543.81;5013235;28;20404;-54
2023/01/04 05:43:12;;;;;;;9.68;8.10;;;;;;;19.48;55.48;102547.41;5014176;28;20057;-55
2023/01/04 05:45:42;;;;;;;10.45;8.75;;;;;;;19.48;55.73;102547.41;5014385;28;20480;-56
2023/01/04 05:48:09;;;;;;;10.68;7.90;;;;;;;19.49;55.81;102551.88;5013623;28;20053;-54
2023/01/04 05:50:37;;;;;;;12.05;9.13;;;;;;;19.48;55.71;102544.72;5013657;28;20050;-55
2023/01/04 05:53:07;;;;;;;10.45;8.57;;;;;;;19.49;55.66;102549.19;5028594;28;20061;-54
2023/01/04 05:55:34;;;;;;;10.05;8.48;;;;;;;19.49;55.82;102544.66;5031810;28;20052;-54
2023/01/04 05:58:02;;;;;;;9.75;7.97;;;;;;;19.50;55.67;102546.38;5033245;28;20057;-54
2023/01/04 06:00:29;;;;;;;11.15;9.05;;;;;;;19.49;55.62;102547.34;5033149;28;20116;-55
2023/01/04 06:02:57;;;;;;;10.60;8.38;;;;;;;19.50;55.60;102548.22;5032257;28;20056;-55
2023/01/04 06:05:24;;;;;;;9.93;8.45;;;;;;;19.49;55.68;102555.41;5033336;28;20373;-54
2023/01/04 06:07:52;;;;;;;12.15;8.88;;;;;;;19.51;55.68;102558.00;5033284;28;20049;-55
2023/01/04 06:10:20;;;;;;;9.82;8.25;;;;;;;19.49;55.67;102557.22;5033168;28;20053;-55
2023/01/04 06:12:47;;;;;;;11.35;8.45;;;;;;;19.50;55.59;102565.19;5033373;28;20057;-55
2023/01/04 06:15:14;;;;;;;9.25;7.45;;;;;;;19.50;55.64;102564.31;5033193;28;20375;-55
2023/01/04 06:17:42;;;;;;;11.38;8.20;;;;;;;19.51;55.64;102568.72;5033207;28;20049;-55
2023/01/04 06:20:10;;;;;;;9.15;7.60;;;;;;;19.50;55.64;102567.88;5033235;28;20056;-55
2023/01/04 06:22:39;;;;;;;10.40;7.32;;;;;;;19.50;55.66;102551.75;5033492;28;20045;-54
2023/01/04 06:25:08;;;;;;;10.43;8.57;;;;;;;19.50;55.45;102557.13;5033057;28;20382;-54
2023/01/04 06:27:35;;;;;;;9.07;7.28;;;;;;;19.50;55.51;102554.44;5033536;28;20046;-55
2023/01/04 06:30:03;;;;;;;9.70;7.82;;;;;;;19.50;55.50;102567.88;5033116;28;20049;-54
2023/01/04 06:32:31;;;;;;;10.57;8.02;;;;;;;19.50;55.70;102567.00;5032751;28;20056;-54
2023/01/04 06:34:58;;;;;;;10.05;8.10;;;;;;;19.51;55.52;102564.22;5032876;28;20052;-54
2023/01/04 06:37:25;;;;;;;9.35;7.93;;;;;;;19.50;55.57;102567.88;5032975;28;20048;-55
2023/01/04 06:39:53;;;;;;;9.95;7.32;;;;;;;19.51;55.50;102560.69;5016715;28;20038;-57
2023/01/04 06:45:07;;;;;;;9.73;7.53;;;;;;;19.50;55.57;102567.88;5013673;28;20042;-53
2023/01/04 06:47:34;;;;;;;11.10;8.00;;;;;;;19.51;55.58;102560.69;5017232;28;20049;-55
2023/01/04 06:50:01;;;;;;;12.73;8.27;;;;;;;19.50;55.43;102557.13;5017275;28;20049;-55
2023/01/04 06:52:29;;;;;;;9.13;7.38;;;;;;;19.50;55.41;102567.00;5026292;28;20056;-53
2023/01/04 06:54:56;;;;;;;10.75;7.82;;;;;;;19.51;55.62;102571.41;5037019;28;20049;-54
2023/01/04 06:57:23;;;;;;;8.43;7.28;;;;;;;19.50;55.46;102572.38;5036848;28;20518;-54
2023/01/04 06:59:50;;;;;;;11.32;8.25;;;;;;;19.51;55.40;102579.47;5036757;28;20052;-52
2023/01/04 07:02:18;;;;;;;12.95;7.93;;;;;;;19.50;55.52;102575.94;5037126;28;20042;-54
2023/01/04 07:04:46;;;;;;;10.95;8.32;;;;;;;19.50;55.53;102583.13;5036782;28;20045;-55
2023/01/04 07:07:13;;;;;;;9.43;7.25;;;;;;;19.50;55.51;102593.88;5036660;28;20049;-54
2023/01/04 07:09:41;;;;;;;9.98;7.82;;;;;;;19.50;55.48;102586.69;5037085;28;20060;-52
2023/01/04 07:12:08;;;;;;;11.32;8.55;;;;;;;19.49;55.57;102593.00;5036607;28;20050;-54
2023/01/04 07:14:35;;;;;;;11.82;8.00;;;;;;;19.50;55.50;102585.81;5036461;28;20049;-55
2023/01/04 07:17:02;;;;;;;11.07;8.02;;;;;;;19.50;55.54;102589.38;5036785;28;20053;-53
2023/01/04 07:19:30;;;;;;;9.40;8.10;;;;;;;19.50;55.41;102597.41;5036524;28;20057;-54
2023/01/04 07:21:57;;;;;;;10.75;7.80;;;;;;;19.50;55.51;102596.56;5036341;28;20380;-54
2023/01/04 07:24:25;;;;;;;8.63;7.53;;;;;;;19.51;55.74;102609.03;5036728;28;20053;-55
2023/01/04 07:27:00;;;;;;;9.73;7.30;;;;;;;19.51;55.55;102601.84;5036422;28;20057;-54
2023/01/04 07:29:27;;;;;;;10.30;7.50;;;;;;;19.52;55.38;102605.38;5036082;28;20045;-53
2023/01/04 07:31:54;;;;;;;9.80;7.75;;;;;;;19.51;55.58;102600.97;5036419;28;20052;-53
2023/01/04 07:34:24;;;;;;;9.43;7.50;;;;;;;19.51;55.53;102603.66;5036038;28;20056;-55
2023/01/04 07:36:52;;;;;;;9.13;7.20;;;;;;;19.53;55.54;102604.44;5036004;28;20045;-54
2023/01/04 07:39:20;;;;;;;10.80;8.32;;;;;;;19.51;55.50;102607.22;5034749;28;20049;-55
2023/01/04 07:41:49;;;;;;;9.80;7.35;;;;;;;19.52;55.51;102608.06;5013817;28;20053;-54
2023/01/04 07:44:24;;;;;;;10.70;8.23;;;;;;;19.52;55.57;102602.69;5015137;28;20384;-55
2023/01/04 07:46:51;;;;;;;10.57;7.90;;;;;;;19.51;55.58;102600.97;5015681;28;20515;-53
2023/01/04 07:49:19;;;;;;;11.07;7.97;;;;;;;19.52;55.69;102591.94;5015338;28;20769;-54
2023/01/04 07:51:48;;;;;;;8.48;7.05;;;;;;;19.52;55.61;102606.25;5018162;28;20045;-55
2023/01/04 07:54:16;;;;;;;9.70;7.32;;;;;;;19.52;55.66;102602.69;5034771;28;20053;-55
2023/01/04 07:56:45;;;;;;;10.85;7.63;;;;;;;19.52;55.40;102600.88;5034341;28;20053;-54
2023/01/04 07:59:14;;;;;;;9.90;7.60;;;;;;;19.51;55.52;102599.16;5034567;28;20072;-54
2023/01/04 08:01:42;;;;;;;8.95;6.88;;;;;;;19.52;55.66;102605.38;5034505;28;20055;-55
2023/01/04 08:04:11;;;;;;;11.10;7.95;;;;;;;19.52;55.67;102606.25;5034841;28;20068;-54
2023/01/04 08:06:40;;;;;;;8.55;7.07;;;;;;;19.52;55.48;102608.06;5034374;28;20057;-55
2023/01/04 08:09:09;;;;;;;10.30;7.18;;;;;;;19.52;55.60;102613.44;5034524;28;20046;-53
2023/01/04 08:11:36;;;;;;;9.52;7.30;;;;;;;19.53;55.54;102620.56;5034709;28;20491;-53
2023/01/04 08:14:04;;;;;;;9.20;7.22;;;;;;;19.52;55.75;102622.34;5034320;28;20630;-54
2023/01/04 08:16:34;;;;;;;10.65;7.32;;;;;;;19.52;55.62;102629.56;5034218;28;20049;-56
2023/01/04 08:19:07;;;;;;;8.73;7.28;;;;;;;19.53;55.66;102625.94;5034426;28;20049;-55
2023/01/04 08:21:35;;;;;;;9.80;7.05;;;;;;;19.53;55.73;102631.31;5034201;28;20046;-51
2023/01/04 08:24:03;;;;;;;10.60;8.13;;;;;;;19.52;55.68;102618.81;5033852;28;20053;-54
2023/01/04 08:26:31;;;;;;;9.40;6.95;;;;;;;19.53;55.60;102628.63;5033972;28;20041;-55
2023/01/04 08:28:58;;;;;;;11.77;7.90;;;;;;;19.53;55.76;102628.63;5034498;28;20402;-55
2023/01/04 08:31:28;;;;;;;9.63;7.38;;;;;;;19.52;55.79;102630.41;5034317;28;20069;-55
2023/01/04 08:33:57;;;;;;;8.70;7.00;;;;;;;19.52;55.78;102632.25;5032573;28;20045;-53
2023/01/04 08:36:27;;;;;;;9.57;7.70;;;;;;;19.52;55.68;102633.09;5034039;28;20056;-55
2023/01/04 08:38:57;;;;;;;10.77;7.90;;;;;;;19.52;55.69;102630.41;5032705;28;20056;-53
2023/01/04 08:41:29;;;;;;;9.68;7.65;;;;;;;19.53;55.59;102631.31;4982476;28;1149777;-54
2023/01/04 08:44:18;;;;;;;10.38;6.97;;;;;;;19.54;55.41;102633.03;5032355;28;20045;-55
2023/01/04 08:46:45;;;;;;;10.00;7.63;;;;;;;19.52;55.59;102633.09;5034924;28;20049;-54
2023/01/04 08:49:12;;;;;;;8.95;7.50;;;;;;;19.52;55.67;102635.78;5034667;28;20056;-54
2023/01/04 08:51:41;;;;;;;11.38;7.85;;;;;;;19.54;55.48;102637.53;5034964;28;20388;-54
2023/01/04 08:54:09;;;;;;;9.73;7.50;;;;;;;19.52;55.80;102626.88;5034629;28;20049;-55
2023/01/04 08:56:37;;;;;;;10.93;7.65;;;;;;;19.52;55.50;102630.41;5034287;28;20048;-55
2023/01/04 08:59:05;;;;;;;14.38;8.18;;;;;;;19.52;55.67;102630.41;5034506;28;20057;-57
2023/01/04 09:01:33;;;;;;;24.58;16.38;;;;;;;19.46;53.66;102636.16;5034732;28;20045;-49
2023/01/04 09:04:01;;;;;;;25.70;18.75;;;;;;;19.31;53.33;102634.34;5029949;28;20049;-48
2023/01/04 09:06:29;;;;;;;27.42;18.50;;;;;;;19.17;53.79;102643.22;5023972;28;20041;-49
2023/01/04 09:08:57;;;;;;;20.38;13.63;;;;;;;19.17;55.01;102645.03;5016323;28;20053;-51
2023/01/04 09:11:25;;;;;;;18.52;11.07;;;;;;;19.19;55.83;102643.97;5014226;28;20050;-52
2023/01/04 09:13:59;;;;;;;14.80;9.55;;;;;;;19.25;55.92;102653.53;5013571;28;20053;-55
2023/01/04 09:16:36;;;;;;;16.95;11.45;;;;;;;19.28;55.97;102642.56;5014254;28;20046;-53
2023/01/04 09:19:04;;;;;;;14.82;9.95;;;;;;;19.33;56.05;102650.41;5013955;28;20056;-50
2023/01/04 09:21:31;;;;;;;13.38;9.77;;;;;;;19.35;55.62;102654.72;5014571;28;20046;-50
2023/01/04 09:23:59;;;;;;;13.05;9.65;;;;;;;19.38;55.96;102651.00;5034531;28;20049;-55
2023/01/04 09:26:26;;;;;;;15.73;9.07;;;;;;;19.40;55.77;102654.44;5034036;28;20052;-54
2023/01/04 09:28:55;;;;;;;13.88;9.48;;;;;;;19.43;55.58;102656.97;5034232;28;20046;-54
2023/01/04 09:31:27;;;;;;;17.40;10.25;;;;;;;19.44;55.71;102659.53;5034268;28;20045;-53
2023/01/04 09:33:56;;;;;;;12.57;9.55;;;;;;;19.45;55.42;102658.63;5033858;28;20384;-51
2023/01/04 09:36:43;;;;;;;11.90;9.55;;;;;;;19.46;55.91;102654.97;5033570;28;20049;-55
2023/01/04 09:39:11;;;;;;;13.20;9.60;;;;;;;19.48;55.38;102657.56;5034259;28;20053;-55
2023/01/04 09:41:55;;;;;;;17.65;11.98;;;;;;;19.45;54.83;102647.88;5030374;28;20060;-55
2023/01/04 09:44:38;;;;;;;23.00;12.23;;;;;;;19.44;54.78;102637.19;5031450;28;20053;-55
2023/01/04 09:47:42;;;;;;;13.85;9.60;;;;;;;19.45;55.33;102642.50;5033557;28;20045;-56
2023/01/04 09:50:17;;;;;;;12.15;8.45;;;;;;;19.46;55.81;102638.00;5033723;28;20379;-55
2023/01/04 09:52:54;;;;;;;17.58;13.15;;;;;;;19.46;54.16;102635.31;5033926;28;20057;-56
2023/01/04 09:55:29;;;;;;;28.50;19.08;;;;;;;19.36;52.66;102636.78;5033285;28;20502;-56
2023/01/04 09:58:15;;;;;;;23.77;16.38;;;;;;;19.29;54.06;102627.34;5013847;28;20447;-55
2023/01/04 10:00:47;;;;;;;21.85;14.68;;;;;;;19.27;55.08;102622.91;5013707;28;20392;-57
2023/01/04 10:03:21;;;;;;;15.45;12.20;;;;;;;19.29;55.22;102622.84;5014021;28;20058;-56
2023/01/04 10:05:50;;;;;;;17.95;11.90;;;;;;;19.31;55.13;102620.94;5013417;28;20058;-56
2023/01/04 10:08:19;;;;;;;15.00;10.65;;;;;;;19.33;55.28;102619.03;5013361;28;20057;-56
2023/01/04 10:11:10;;;;;;;18.45;14.02;;;;;;;19.31;54.76;102617.38;5012295;28;20479;-57
2023/01/04 10:14:23;;;;;;;17.90;11.63;;;;;;;19.34;55.41;102614.53;5013822;28;20054;-56
2023/01/04 10:17:09;;;;;;;14.65;10.98;;;;;;;19.35;55.60;102611.75;5012753;28;20054;-56
2023/01/04 10:19:50;;;;;;;12.48;9.82;;;;;;;19.38;55.82;102622.31;5013294;28;20072;-55
2023/01/04 10:22:51;;;;;;;15.13;11.52;;;;;;;19.40;55.73;102620.38;5014051;28;20065;-56
2023/01/04 10:25:53;;;;;;;14.45;11.05;;;;;;;19.40;55.36;102612.34;5013475;28;20483;-56
2023/01/04 10:28:44;;;;;;;12.75;10.30;;;;;;;19.41;55.24;102606.03;5013012;28;20052;-55
2023/01/04 10:31:17;;;;;;;12.13;9.35;;;;;;;19.44;55.72;102607.66;5015704;28;20042;-47
2023/01/04 10:34:49;;;;;;;17.25;11.35;;;;;;;19.46;55.69;102600.38;5031995;28;20041;-55
2023/01/04 10:37:20;;;;;;;16.60;10.02;;;;;;;19.51;56.19;102595.59;5026364;28;20061;-51
2023/01/04 10:39:51;;;;;;;12.02;9.60;;;;;;;19.52;55.65;102598.19;5033167;28;20049;-52
2023/01/04 10:42:31;;;;;;;13.52;9.60;;;;;;;19.54;55.52;102595.44;5030821;28;20053;-52
2023/01/04 10:45:19;;;;;;;13.23;9.00;;;;;;;19.56;55.23;102598.00;5029480;28;20072;-54
2023/01/04 10:48:12;;;;;;;11.75;8.63;;;;;;;19.57;55.30;102588.97;5032935;28;20045;-56
2023/01/04 10:50:59;;;;;;;11.40;8.75;;;;;;;19.58;55.03;102588.91;5032915;28;20064;-52
2023/01/04 10:53:51;;;;;;;10.82;8.82;;;;;;;19.60;55.23;102583.44;5032379;28;20045;-56
2023/01/04 10:56:27;;;;;;;10.05;7.95;;;;;;;19.60;55.08;102583.44;5032380;28;20057;-54
2023/01/04 10:59:12;;;;;;;9.98;7.63;;;;;;;19.61;55.16;102583.41;5032695;28;20048;-53
2023/01/04 11:01:46;;;;;;;11.93;8.57;;;;;;;19.62;54.91;102578.88;5033122;28;20053;-52
2023/01/04 11:04:36;;;;;;;10.95;8.65;;;;;;;19.62;55.01;102571.69;5032816;28;20413;-54
2023/01/04 11:07:14;;;;;;;10.02;7.72;;;;;;;19.63;55.03;102568.03;5032359;28;20041;-54
2023/01/04 11:10:06;;;;;;;10.55;7.75;;;;;;;19.66;55.00;102569.69;5032527;28;20431;-55
2023/01/04 11:12:33;;;;;;;13.93;7.47;;;;;;;19.66;54.87;102557.13;5012931;28;20061;-54
2023/01/04 11:15:01;;;;;;;9.70;7.40;;;;;;;19.67;54.72;102563.34;5012766;28;20054;-49
2023/01/04 11:17:30;;;;;;;16.40;8.50;;;;;;;19.67;54.86;102555.28;5030694;28;20053;-54
2023/01/04 11:19:58;;;;;;;9.77;7.43;;;;;;;19.66;54.75;102553.56;5032268;28;20049;-48
2023/01/04 11:22:40;;;;;;;9.90;7.68;;;;;;;19.67;54.46;102556.16;5032986;28;20487;-48
2023/01/04 11:25:12;;;;;;;11.38;7.38;;;;;;;19.69;54.60;102545.34;5032608;28;20049;-54
2023/01/04 11:28:32;;;;;;;9.32;6.63;;;;;;;19.70;54.95;102547.91;5031828;28;20352;-55
2023/01/04 11:31:18;;;;;;;8.63;6.95;;;;;;;19.70;54.37;102544.38;5032148;28;20518;-51
2023/01/04 11:33:56;;;;;;;9.25;6.68;;;;;;;19.71;54.30;102540.72;5036274;28;20045;-48
2023/01/04 11:36:38;;;;;;;10.30;7.03;;;;;;;19.70;54.39;102536.31;5035669;28;20050;-50
2023/01/04 11:39:17;;;;;;;10.27;6.63;;;;;;;19.72;54.68;102537.06;5022154;28;20113;-52
2023/01/04 11:41:58;;;;;;;8.30;6.00;;;;;;;19.69;54.72;102522.00;5023545;28;20056;-52
2023/01/04 11:44:32;;;;;;;11.77;6.43;;;;;;;19.70;54.54;102521.03;5021525;28;20463;-52
2023/01/04 11:47:13;;;;;;;11.27;6.78;;;;;;;19.69;54.47;102522.00;5015539;28;20415;-51
2023/01/04 11:49:40;;;;;;;8.55;6.22;;;;;;;19.68;54.40;102512.19;5016329;28;20054;-53
2023/01/04 11:52:32;;;;;;;7.45;5.70;;;;;;;19.69;54.59;102511.25;5022073;28;20052;-53
2023/01/04 11:55:35;;;;;;;9.07;6.47;;;;;;;19.69;54.29;102499.66;5035860;28;20099;-53
2023/01/04 11:58:15;;;;;;;7.47;6.07;;;;;;;19.69;54.49;102505.03;5033747;28;20052;-51
2023/01/04 12:00:54;;;;;;;7.55;6.03;;;;;;;19.69;54.54;102499.66;5026859;28;20061;-53
2023/01/04 12:03:37;;;;;;;7.70;5.85;;;;;;;19.69;54.61;102502.34;5028889;28;20050;-53
2023/01/04 12:06:48;;;;;;;9.00;5.40;;;;;;;19.69;54.75;102492.44;5029542;28;20049;-51
2023/01/04 12:09:18;;;;;;;7.78;5.90;;;;;;;19.69;54.81;102488.91;5013865;28;20505;-51
2023/01/04 12:11:55;;;;;;;6.60;5.43;;;;;;;19.69;54.92;102484.38;5013951;28;20050;-52
2023/01/04 12:14:24;;;;;;;6.88;5.60;;;;;;;19.70;54.81;102490.63;5013713;28;20050;-52
2023/01/04 12:16:55;;;;;;;6.13;5.00;;;;;;;19.71;55.25;102489.66;5013592;28;20408;-50
2023/01/04 12:19:23;;;;;;;7.53;5.88;;;;;;;19.70;55.01;102488.78;5013479;28;20065;-55
2023/01/04 12:21:54;;;;;;;7.43;5.38;;;;;;;19.71;55.10;102486.97;5014031;28;20049;-48
2023/01/04 12:24:26;;;;;;;7.00;5.70;;;;;;;19.71;55.19;102478.91;5013418;28;20400;-48
2023/01/04 12:26:54;;;;;;;7.63;4.82;;;;;;;19.73;55.52;102482.38;5013197;28;20041;-51
2023/01/04 12:29:21;;;;;;;8.35;5.95;;;;;;;19.73;55.45;102477.88;5013896;28;20054;-48
2023/01/04 12:31:51;;;;;;;6.55;4.97;;;;;;;19.74;55.49;102471.53;5013797;28;20064;-49
2023/01/04 12:34:21;;;;;;;6.25;4.60;;;;;;;19.73;55.71;102467.13;5026682;28;20049;-52
2023/01/04 12:37:00;;;;;;;6.38;5.07;;;;;;;19.73;55.61;102464.44;5035309;28;20056;-52